Time;durP1;ratioP1;P1;durP2;ratioP2;P2;SDS_P1;SDS_P2;PMS_P1;PMS_P2;Temp;Humidity;BMP_temperature;BMP_pressure;BME280_temperature;BME280_humidity;BME280_pressure;Samples;Min_cycle;Max_cycle;Signal;HPM_P1;HPM_P2
2022/06/25 00:13:48;;;;;;;2.23;0.50;;;27.50;85.00;;;;;;4922010;29;20651;-96
2022/06/25 00:16:20;;;;;;;0.73;0.50;;;27.50;84.00;;;;;;4922349;29;20204;-96
2022/06/25 00:18:52;;;;;;;0.40;0.40;;;27.60;87.40;;;;;;4921588;29;20296;-96
2022/06/25 00:21:32;;;;;;;2.47;0.50;;;27.70;84.40;;;;;;4921074;29;20328;-96
2022/06/25 00:24:04;;;;;;;1.33;0.50;;;27.70;84.30;;;;;;4921318;29;20248;-96
2022/06/25 00:26:37;;;;;;;1.27;0.50;;;27.60;82.50;;;;;;4921219;29;20269;-96
2022/06/25 00:35:18;;;;;;;1.27;0.40;;;27.40;82.90;;;;;;4959499;29;20637;-96
2022/06/25 00:37:53;;;;;;;1.27;0.40;;;27.30;82.70;;;;;;4963308;28;20684;-96
2022/06/25 00:40:25;;;;;;;1.03;0.30;;;27.20;83.80;;;;;;4961632;28;20294;-96
2022/06/25 00:42:57;;;;;;;1.93;0.40;;;27.20;81.80;;;;;;4962337;28;20216;-96
2022/06/25 00:45:49;;;;;;;1.53;0.40;;;27.20;83.00;;;;;;4966062;28;20203;-96
2022/06/25 00:48:20;;;;;;;3.10;0.37;;;27.20;83.10;;;;;;4977089;28;20292;-96
2022/06/25 00:50:51;;;;;;;0.57;0.40;;;27.70;83.10;;;;;;4977938;28;20231;-96
2022/06/25 01:03:05;;;;;;;2.40;0.50;;;28.80;81.90;;;;;;4974101;28;20203;-96
2022/06/25 01:05:37;;;;;;;0.43;0.30;;;28.90;82.10;;;;;;4971803;28;20243;-96
2022/06/25 01:08:09;;;;;;;1.03;0.40;;;29.30;83.40;;;;;;4967574;28;20259;-96
2022/06/25 01:10:44;;;;;;;1.03;0.50;;;29.60;82.90;;;;;;4963630;28;20275;-96
2022/06/25 01:13:18;;;;;;;1.50;0.70;;;29.70;81.80;;;;;;4961918;28;20209;-96
2022/06/25 01:15:53;;;;;;;2.03;0.40;;;30.00;81.80;;;;;;4962903;28;20226;-96
2022/06/25 01:18:25;;;;;;;3.10;0.73;;;29.90;82.30;;;;;;4961011;28;20246;-96
2022/06/25 01:20:57;;;;;;;0.90;0.50;;;30.00;80.40;;;;;;4968978;28;20653;-96
2022/06/25 01:23:46;;;;;;;2.63;0.60;;;30.20;78.90;;;;;;4972364;28;20227;-96
2022/06/25 01:26:19;;;;;;;2.53;0.60;;;30.20;78.90;;;;;;4963283;28;20215;-96
2022/06/25 01:28:59;;;;;;;0.80;0.50;;;30.50;78.40;;;;;;4964791;28;20208;-96
2022/06/25 01:40:50;;;;;;;1.83;0.50;;;30.00;81.20;;;;;;4971630;28;20215;-96
2022/06/25 01:49:44;;;;;;;1.33;0.60;;;30.10;77.50;;;;;;4974005;28;20222;-96
2022/06/25 01:52:29;;;;;;;0.60;0.40;;;30.10;77.80;;;;;;4973755;28;20203;-95
2022/06/25 01:55:14;;;;;;;3.37;0.70;;;30.20;76.40;;;;;;4965030;28;20897;-96
2022/06/25 01:57:57;;;;;;;0.30;0.30;;;30.30;76.90;;;;;;4966761;28;20231;-96
2022/06/25 02:00:35;;;;;;;0.43;0.40;;;30.40;76.50;;;;;;5068488;23;20228;-96
2022/06/25 02:03:22;;;;;;;2.17;0.53;;;30.50;78.40;;;;;;4944580;28;20208;-96
2022/06/25 02:06:02;;;;;;;0.70;0.30;;;30.70;75.30;;;;;;4942990;29;20215;-96
2022/06/25 02:08:36;;;;;;;3.78;0.60;;;29.90;77.10;;;;;;4953163;28;20232;-96
2022/06/25 02:11:20;;;;;;;3.97;0.50;;;30.00;77.00;;;;;;4947712;28;20653;-96
2022/06/25 02:19:47;;;;;;;2.73;0.50;;;30.00;75.10;;;;;;5268665;23;20273;-96
2022/06/25 02:23:03;;;;;;;1.43;0.70;;;29.80;76.90;;;;;;4977964;28;20214;-96
2022/06/25 02:29:05;;;;;;;0.63;0.60;;;29.30;76.70;;;;;;4971819;28;20219;-96
2022/06/25 02:37:54;;;;;;;0.60;0.47;;;27.60;79.80;;;;;;4974403;28;20204;-96
2022/06/25 02:40:36;;;;;;;1.20;0.60;;;26.70;81.40;;;;;;4965076;28;20207;-96
2022/06/25 02:46:16;;;;;;;1.27;0.60;;;25.40;84.20;;;;;;4970320;28;20207;-96
2022/06/25 02:55:09;;;;;;;3.10;0.50;;;24.20;85.50;;;;;;4976681;28;20204;-96
2022/06/25 03:16:23;;;;;;;2.93;0.70;;;23.10;88.80;;;;;;5129139;23;20712;-96
2022/06/25 03:29:52;;;;;;;6.27;1.03;;;22.40;90.40;;;;;;5170153;23;20250;-96
2022/06/25 03:35:47;;;;;;;0.53;0.50;;;22.20;90.50;;;;;;4953276;29;20211;-96
2022/06/25 03:44:56;;;;;;;1.63;0.60;;;21.90;91.70;;;;;;4957116;29;20271;-96
2022/06/25 03:47:35;;;;;;;0.93;0.47;;;21.80;91.30;;;;;;4950255;29;20263;-96
2022/06/25 03:53:36;;;;;;;1.37;0.50;;;21.60;92.70;;;;;;4969982;29;20227;-96
2022/06/25 03:56:12;;;;;;;3.77;0.70;;;21.30;93.80;;;;;;4968431;29;20251;-96
2022/06/25 03:59:11;;;;;;;1.43;0.60;;;21.20;93.00;;;;;;4978209;28;20204;-96
2022/06/25 04:01:57;;;;;;;1.07;0.70;;;21.20;92.40;;;;;;4969399;29;20203;-96
2022/06/25 04:14:30;;;;;;;2.30;1.00;;;20.80;94.10;;;;;;4970254;29;20274;-96
2022/06/25 04:17:08;;;;;;;1.33;0.73;;;20.60;94.10;;;;;;4967344;28;20212;-96
2022/06/25 04:19:44;;;;;;;0.90;0.70;;;20.50;94.90;;;;;;4964282;28;20219;-96
2022/06/25 04:33:54;;;;;;;1.00;0.50;;;20.00;96.50;;;;;;5882281;23;20254;-96
2022/06/25 04:42:13;;;;;;;0.90;0.60;;;19.80;97.90;;;;;;4962250;28;20215;-96
2022/06/25 04:44:50;;;;;;;1.50;0.90;;;19.70;99.30;;;;;;4963142;28;20211;-96
2022/06/25 04:47:29;;;;;;;3.57;0.70;;;19.60;99.40;;;;;;4962987;28;20233;-96
2022/06/25 04:50:07;;;;;;;1.83;0.80;;;19.50;99.60;;;;;;4965490;28;20574;-96
2022/06/25 04:52:48;;;;;;;1.00;0.77;;;19.40;99.90;;;;;;4962874;28;20216;-96
2022/06/25 04:55:30;;;;;;;0.97;0.67;;;19.30;99.90;;;;;;4962974;28;20271;-96
2022/06/25 04:58:10;;;;;;;0.93;0.50;;;19.20;99.90;;;;;;4963309;28;20239;-96
2022/06/25 05:18:29;;;;;;;0.70;0.70;;;18.60;99.90;;;;;;4978681;28;20317;-96
2022/06/25 05:24:43;;;;;;;3.43;0.90;;;18.50;99.90;;;;;;4973370;28;20254;-96
2022/06/25 05:30:20;;;;;;;1.37;0.70;;;18.50;99.90;;;;;;4968909;28;20203;-96
2022/06/25 05:33:13;;;;;;;1.40;0.90;;;18.40;99.90;;;;;;4968067;28;20212;-97
2022/06/25 05:35:51;;;;;;;4.30;1.00;;;18.30;99.90;;;;;;4966933;28;20291;-96
2022/06/25 05:38:36;;;;;;;4.13;2.10;;;18.30;99.90;;;;;;4968112;28;20222;-96
2022/06/25 05:43:59;;;;;;;3.07;1.87;;;18.10;99.90;;;;;;4981322;28;20246;-96
2022/06/25 05:46:35;;;;;;;3.53;1.70;;;18.10;99.90;;;;;;4983170;28;20207;-96
2022/06/25 05:49:07;;;;;;;4.30;1.87;;;18.10;99.90;;;;;;4981196;28;20239;-96
2022/06/25 05:51:47;;;;;;;4.03;1.33;;;18.00;99.90;;;;;;4986653;28;20353;-96
2022/06/25 05:54:20;;;;;;;1.73;1.10;;;18.00;99.90;;;;;;4997743;28;20191;-96
2022/06/25 05:56:53;;;;;;;2.27;1.70;;;18.00;99.90;;;;;;5001467;28;20213;-96
2022/06/25 05:59:39;;;;;;;2.83;1.30;;;18.00;99.90;;;;;;5000265;28;20218;-96
2022/06/25 06:02:11;;;;;;;2.10;0.70;;;18.00;99.90;;;;;;5000555;28;20214;-96
2022/06/25 06:04:44;;;;;;;1.27;1.00;;;18.10;99.90;;;;;;4996250;28;20218;-96
2022/06/25 06:07:27;;;;;;;1.90;0.70;;;18.00;99.90;;;;;;4986129;28;20282;-96
2022/06/25 06:10:03;;;;;;;2.43;0.80;;;18.00;99.90;;;;;;4983969;28;20243;-96
2022/06/25 06:12:40;;;;;;;2.63;1.10;;;17.90;99.90;;;;;;4984429;28;20598;-96
2022/06/25 06:15:38;;;;;;;1.50;1.00;;;17.80;99.90;;;;;;4987890;28;20207;-96
2022/06/25 06:18:11;;;;;;;0.80;0.80;;;17.70;99.90;;;;;;4989229;28;20210;-96
2022/06/25 06:21:14;;;;;;;2.90;0.90;;;17.70;99.90;;;;;;4996396;28;20271;-96
2022/06/25 06:23:55;;;;;;;1.17;0.80;;;17.60;99.90;;;;;;4988828;28;20211;-96
2022/06/25 06:26:45;;;;;;;3.03;0.90;;;17.50;99.90;;;;;;4988541;28;20262;-96
2022/06/25 06:29:31;;;;;;;5.53;1.63;;;17.40;99.90;;;;;;4988200;28;20274;-96
2022/06/25 06:32:21;;;;;;;3.07;2.00;;;17.50;99.90;;;;;;4987229;28;20283;-96
2022/06/25 06:40:27;;;;;;;3.13;1.33;;;17.20;99.90;;;;;;4986231;28;20286;-96
2022/06/25 06:42:59;;;;;;;1.30;1.20;;;17.10;99.90;;;;;;4989047;28;20202;-96
2022/06/25 06:45:33;;;;;;;4.40;1.20;;;17.10;99.90;;;;;;4991802;28;20276;-96
2022/06/25 06:48:14;;;;;;;2.23;0.90;;;17.00;99.90;;;;;;4990120;28;20215;-96
2022/06/25 06:50:46;;;;;;;2.10;0.80;;;16.90;99.90;;;;;;4988412;28;20203;-95
2022/06/25 06:53:22;;;;;;;0.90;0.80;;;16.90;99.90;;;;;;4993140;28;20652;-96
2022/06/25 06:55:58;;;;;;;1.10;0.80;;;16.90;99.90;;;;;;4988043;28;20283;-96
2022/06/25 06:58:40;;;;;;;3.57;1.00;;;16.80;99.90;;;;;;4989100;28;20203;-96
2022/06/25 07:01:17;;;;;;;0.93;0.80;;;16.80;99.90;;;;;;4989392;28;20230;-96
2022/06/25 07:03:52;;;;;;;1.47;1.00;;;16.70;99.90;;;;;;4997664;28;20207;-96
2022/06/25 07:06:27;;;;;;;1.80;0.50;;;16.60;99.90;;;;;;5000191;28;20207;-96
2022/06/25 07:09:03;;;;;;;1.93;0.87;;;16.60;99.90;;;;;;4961328;28;20253;-96
2022/06/25 07:11:45;;;;;;;2.57;0.80;;;16.60;99.90;;;;;;4960568;28;20211;-96
2022/06/25 07:14:20;;;;;;;1.07;0.63;;;16.50;99.90;;;;;;4961614;28;20236;-96
2022/06/25 07:16:51;;;;;;;1.00;0.80;;;16.50;99.90;;;;;;4961375;28;20237;-96
2022/06/25 07:22:19;;;;;;;2.00;0.83;;;16.40;99.90;;;;;;4957287;28;20192;-96
2022/06/25 07:24:52;;;;;;;1.10;1.00;;;16.30;99.90;;;;;;4961159;28;20203;-96
2022/06/25 07:27:26;;;;;;;1.23;0.80;;;16.30;99.90;;;;;;4960959;28;20217;-96
2022/06/25 07:29:58;;;;;;;1.37;0.80;;;16.30;99.90;;;;;;4959074;29;20232;-96
2022/06/25 07:32:34;;;;;;;2.43;1.00;;;16.30;99.90;;;;;;4947106;29;20212;-96
2022/06/25 07:44:43;;;;;;;1.07;0.90;;;16.20;99.90;;;;;;4948178;29;20212;-96
2022/06/25 07:47:15;;;;;;;3.93;0.90;;;16.10;99.90;;;;;;4973705;28;20220;-96
2022/06/25 07:52:41;;;;;;;1.87;0.90;;;16.00;99.90;;;;;;4967739;28;20247;-96
2022/06/25 07:55:21;;;;;;;2.00;0.80;;;15.90;99.90;;;;;;4963923;28;20276;-96
2022/06/25 07:57:53;;;;;;;1.80;0.83;;;15.90;99.90;;;;;;4961427;28;20211;-96
2022/06/25 08:00:25;;;;;;;1.20;1.00;;;15.80;99.90;;;;;;4963801;28;20231;-96
2022/06/25 08:02:58;;;;;;;1.23;0.80;;;15.80;99.90;;;;;;4961642;28;20232;-96
2022/06/25 08:05:33;;;;;;;1.23;1.00;;;15.80;99.90;;;;;;4961952;28;20203;-96
2022/06/25 08:08:17;;;;;;;2.50;1.10;;;15.70;99.90;;;;;;4962239;28;20207;-96
2022/06/25 08:13:37;;;;;;;1.67;1.00;;;15.70;99.90;;;;;;4958532;28;20208;-96
2022/06/25 08:16:11;;;;;;;2.97;1.00;;;15.70;99.90;;;;;;4960303;28;20212;-96
2022/06/25 08:18:43;;;;;;;3.33;1.10;;;15.60;99.90;;;;;;4959709;28;20204;-96
2022/06/25 08:21:19;;;;;;;1.17;0.73;;;15.60;99.90;;;;;;4959325;28;20255;-96
2022/06/25 08:23:54;;;;;;;1.37;0.70;;;15.60;99.90;;;;;;4959760;28;20240;-96
2022/06/25 08:26:25;;;;;;;2.60;1.00;;;15.60;99.90;;;;;;4959689;28;20211;-96
2022/06/25 08:29:10;;;;;;;1.93;1.17;;;15.60;99.90;;;;;;4959273;28;20259;-96
2022/06/25 08:31:45;;;;;;;3.97;0.90;;;15.50;99.90;;;;;;4958861;28;20216;-96
2022/06/25 08:34:17;;;;;;;1.07;0.80;;;15.50;99.90;;;;;;4959632;28;20212;-96
2022/06/25 08:36:50;;;;;;;2.40;0.83;;;15.50;99.90;;;;;;4959865;28;20204;-96
2022/06/25 08:39:26;;;;;;;1.23;0.93;;;15.40;99.90;;;;;;4962527;28;20236;-96
2022/06/25 08:47:42;;;;;;;1.13;0.73;;;15.30;99.90;;;;;;4983817;28;20262;-96
2022/06/25 08:50:30;;;;;;;2.57;1.00;;;15.20;99.90;;;;;;4983063;28;20235;-96
2022/06/25 08:56:05;;;;;;;2.77;0.93;;;15.20;99.90;;;;;;4982904;28;20241;-96
2022/06/25 08:58:37;;;;;;;1.60;0.90;;;15.20;99.90;;;;;;4981886;28;20210;-96
2022/06/25 09:03:55;;;;;;;1.77;0.90;;;15.10;99.90;;;;;;4983054;28;20210;-96
2022/06/25 09:06:34;;;;;;;1.50;0.90;;;15.00;99.90;;;;;;4981372;28;20210;-96
2022/06/25 09:09:11;;;;;;;1.73;0.90;;;15.00;99.90;;;;;;4962989;28;20251;-95
2022/06/25 09:12:10;;;;;;;2.03;1.00;;;15.00;99.90;;;;;;4967091;28;20234;-96
2022/06/25 09:14:43;;;;;;;3.27;1.40;;;14.90;99.90;;;;;;4979369;28;20222;-96
2022/06/25 09:17:20;;;;;;;2.17;0.80;;;14.90;99.90;;;;;;4980910;28;20273;-96
2022/06/25 09:22:38;;;;;;;1.23;0.90;;;14.90;99.90;;;;;;4980966;28;20261;-96
2022/06/25 09:25:13;;;;;;;2.67;1.00;;;14.90;99.90;;;;;;4980367;28;20234;-96
2022/06/25 09:27:56;;;;;;;2.03;0.93;;;14.90;99.90;;;;;;4982021;28;20214;-96
2022/06/25 09:30:41;;;;;;;1.83;0.83;;;14.80;99.90;;;;;;4984103;28;20258;-96
2022/06/25 09:33:18;;;;;;;2.73;1.00;;;14.80;99.90;;;;;;4986051;28;20211;-96
2022/06/25 09:36:04;;;;;;;1.00;0.90;;;14.70;99.90;;;;;;4991885;28;20310;-96
2022/06/25 09:38:40;;;;;;;2.43;0.80;;;14.70;99.90;;;;;;4987451;28;20202;-96
2022/06/25 09:41:17;;;;;;;0.70;0.70;;;14.70;99.90;;;;;;4983593;28;20213;-96
2022/06/25 09:47:24;;;;;;;1.77;0.90;;;14.60;99.90;;;;;;4984385;28;20215;-95
2022/06/25 09:50:08;;;;;;;3.07;0.97;;;14.50;99.90;;;;;;4984509;28;20242;-96
2022/06/25 09:52:43;;;;;;;1.13;1.03;;;14.50;99.90;;;;;;4970677;28;20210;-96
2022/06/25 09:55:15;;;;;;;1.00;0.90;;;14.50;99.90;;;;;;4963899;28;20219;-96
2022/06/25 09:58:01;;;;;;;0.77;0.70;;;14.50;99.90;;;;;;4963503;28;20216;-96
2022/06/25 10:00:34;;;;;;;1.10;1.00;;;14.50;99.90;;;;;;4961810;28;20247;-95
2022/06/25 10:03:08;;;;;;;4.07;1.20;;;14.40;99.90;;;;;;4961091;28;20220;-96
2022/06/25 10:05:44;;;;;;;1.17;0.90;;;14.30;99.90;;;;;;4961197;28;20207;-96
2022/06/25 10:08:20;;;;;;;1.50;0.97;;;14.30;99.90;;;;;;4961024;28;20215;-96
2022/06/25 10:10:54;;;;;;;1.27;0.80;;;14.30;99.90;;;;;;4959833;28;20282;-96
2022/06/25 10:13:27;;;;;;;2.93;1.03;;;14.20;99.90;;;;;;4943639;29;20203;-96
2022/06/25 10:16:01;;;;;;;1.17;1.07;;;14.20;99.90;;;;;;4943820;29;20729;-96
2022/06/25 10:18:44;;;;;;;2.43;1.30;;;14.20;99.90;;;;;;4942731;29;20208;-96
2022/06/25 10:21:19;;;;;;;1.70;0.90;;;14.20;99.90;;;;;;4940393;29;20220;-96
2022/06/25 10:23:59;;;;;;;1.20;1.10;;;14.10;99.90;;;;;;4943287;29;20242;-96
2022/06/25 10:26:33;;;;;;;1.70;1.00;;;14.10;99.90;;;;;;4942904;29;20279;-96
2022/06/25 10:29:24;;;;;;;1.40;1.10;;;14.10;99.90;;;;;;4941388;29;20216;-96
2022/06/25 10:35:06;;;;;;;2.57;1.20;;;14.10;99.90;;;;;;4943338;29;20279;-96
2022/06/25 10:42:58;;;;;;;2.03;1.00;;;14.00;99.90;;;;;;4960803;28;20208;-96
2022/06/25 10:43:58;;;;;;;1.83;1.10;;;14.00;99.90;;;;;;4961198;28;20251;-96
2022/06/25 10:46:34;;;;;;;1.33;1.00;;;13.90;99.90;;;;;;4960991;28;20204;-96
2022/06/25 10:49:12;;;;;;;2.90;1.40;;;13.90;99.90;;;;;;4960807;28;20228;-96
2022/06/25 10:51:55;;;;;;;2.53;1.00;;;13.80;99.90;;;;;;4952930;29;20705;-96
2022/06/25 10:54:43;;;;;;;2.10;1.10;;;13.80;99.90;;;;;;4944718;29;20323;-96
2022/06/25 10:57:42;;;;;;;1.30;1.00;;;13.80;99.90;;;;;;4944243;29;20225;-96
2022/06/25 11:00:16;;;;;;;1.30;1.10;;;13.80;99.90;;;;;;4944093;29;20611;-96
2022/06/25 11:05:51;;;;;;;1.60;1.40;;;13.70;99.90;;;;;;4943476;29;20351;-96
2022/06/25 11:08:35;;;;;;;1.70;1.17;;;13.70;99.90;;;;;;4944150;29;20216;-96
2022/06/25 11:11:11;;;;;;;2.77;1.40;;;13.70;99.90;;;;;;4942725;29;20248;-96
2022/06/25 11:13:44;;;;;;;3.87;1.93;;;13.60;99.90;;;;;;4943868;29;20240;-96
2022/06/25 11:16:18;;;;;;;2.60;1.50;;;13.60;99.90;;;;;;4943889;29;20247;-96
2022/06/25 11:18:53;;;;;;;3.00;1.10;;;13.60;99.90;;;;;;4943720;29;20267;-96
2022/06/25 11:21:31;;;;;;;1.40;1.10;;;13.60;99.90;;;;;;4943277;29;20219;-96
2022/06/25 11:24:14;;;;;;;2.70;1.37;;;13.60;99.90;;;;;;4943468;29;20275;-96
2022/06/25 11:32:48;;;;;;;2.63;1.00;;;13.50;99.90;;;;;;4943180;29;20219;-96
2022/06/25 11:35:19;;;;;;;3.13;1.30;;;13.50;99.90;;;;;;4943160;29;20277;-96
2022/06/25 11:37:52;;;;;;;2.70;1.10;;;13.50;99.90;;;;;;4943084;29;20243;-96
2022/06/25 11:40:27;;;;;;;2.93;1.63;;;13.40;99.90;;;;;;4942461;29;20295;-96
2022/06/25 11:43:08;;;;;;;1.83;1.17;;;13.40;99.90;;;;;;4942827;29;20219;-96
2022/06/25 11:45:50;;;;;;;1.37;1.17;;;13.30;99.90;;;;;;4943069;29;20267;-96
2022/06/25 11:48:34;;;;;;;2.10;1.20;;;13.30;99.90;;;;;;4944365;29;20271;-96
2022/06/25 11:51:08;;;;;;;2.37;1.03;;;13.30;99.90;;;;;;4964394;28;20270;-96
2022/06/25 11:53:52;;;;;;;1.63;1.37;;;13.30;99.90;;;;;;4979638;28;20208;-96
2022/06/25 11:56:27;;;;;;;1.73;1.20;;;13.30;99.90;;;;;;4978303;28;20219;-96
2022/06/25 11:58:59;;;;;;;3.13;1.07;;;13.30;99.90;;;;;;4976917;28;20243;-96
2022/06/25 12:01:34;;;;;;;1.57;1.30;;;13.30;99.90;;;;;;4975229;28;20219;-96
2022/06/25 12:04:11;;;;;;;1.73;1.13;;;13.20;99.90;;;;;;4969155;28;20212;-96
2022/06/25 12:06:58;;;;;;;2.23;1.50;;;13.30;99.90;;;;;;4962052;28;20724;-96
2022/06/25 12:09:41;;;;;;;3.13;1.40;;;13.30;99.90;;;;;;4962170;28;20685;-96
2022/06/25 12:15:34;;;;;;;1.30;1.20;;;13.30;99.90;;;;;;4962060;29;20238;-96
2022/06/25 12:18:10;;;;;;;2.70;1.80;;;13.20;99.90;;;;;;4961562;28;20222;-96
2022/06/25 12:20:55;;;;;;;3.33;1.33;;;13.20;99.90;;;;;;4963987;28;20208;-96
2022/06/25 12:23:29;;;;;;;2.00;1.03;;;13.20;99.90;;;;;;4971521;28;20243;-96
2022/06/25 12:26:01;;;;;;;2.90;1.27;;;13.20;99.90;;;;;;4965266;28;20238;-96
2022/06/25 12:28:40;;;;;;;1.57;1.30;;;13.10;99.90;;;;;;4962103;28;20282;-96
2022/06/25 12:31:13;;;;;;;2.50;1.40;;;13.10;99.90;;;;;;4960888;28;20709;-96
2022/06/25 12:33:52;;;;;;;1.77;1.50;;;13.00;99.90;;;;;;4961773;28;20235;-96
2022/06/25 12:36:27;;;;;;;1.93;1.10;;;13.00;99.90;;;;;;4962035;28;20619;-96
2022/06/25 12:39:03;;;;;;;4.53;1.30;;;13.00;99.90;;;;;;4949559;28;20254;-96
2022/06/25 12:41:50;;;;;;;2.23;1.43;;;13.00;99.90;;;;;;4949421;29;20207;-96
2022/06/25 12:44:31;;;;;;;2.73;1.47;;;13.00;99.90;;;;;;4952863;29;20255;-96
2022/06/25 12:47:07;;;;;;;1.63;1.40;;;13.10;99.90;;;;;;4952897;29;20244;-96
2022/06/25 12:49:51;;;;;;;4.63;1.53;;;13.00;99.90;;;;;;4950994;29;20248;-96
2022/06/25 12:55:22;;;;;;;2.07;1.37;;;13.10;99.90;;;;;;4942316;29;20208;-96
2022/06/25 12:57:57;;;;;;;2.03;1.27;;;13.10;99.90;;;;;;4941703;29;20224;-96
2022/06/25 13:00:37;;;;;;;2.80;1.40;;;13.10;99.90;;;;;;4940224;29;20212;-96
2022/06/25 13:03:19;;;;;;;2.27;1.77;;;13.20;99.90;;;;;;4941169;29;20216;-96
2022/06/25 13:05:51;;;;;;;2.83;1.40;;;13.20;99.90;;;;;;4940910;29;20216;-96
2022/06/25 13:08:24;;;;;;;3.20;1.60;;;13.20;99.90;;;;;;4941430;29;20212;-96
2022/06/25 13:10:56;;;;;;;5.27;2.00;;;13.30;99.90;;;;;;4950403;29;20204;-96
2022/06/25 13:13:29;;;;;;;1.77;1.40;;;13.30;99.90;;;;;;4960462;28;20215;-96
2022/06/25 13:16:05;;;;;;;2.40;1.50;;;13.40;99.90;;;;;;4960299;28;20643;-96
2022/06/25 13:18:37;;;;;;;6.50;1.97;;;13.40;99.90;;;;;;4961057;28;20207;-96
2022/06/25 13:21:18;;;;;;;1.63;1.53;;;13.50;99.90;;;;;;4959133;28;20262;-96
2022/06/25 13:23:51;;;;;;;2.43;1.50;;;13.50;99.90;;;;;;4960178;28;20303;-96
2022/06/25 13:26:31;;;;;;;1.70;1.60;;;13.50;99.90;;;;;;4962606;28;20569;-96
2022/06/25 13:29:04;;;;;;;4.03;1.60;;;13.50;99.90;;;;;;4962824;28;20223;-96
2022/06/25 13:31:38;;;;;;;2.87;1.80;;;13.50;99.90;;;;;;4959480;29;20311;-96
2022/06/25 13:34:14;;;;;;;2.40;1.80;;;13.50;99.90;;;;;;4961014;28;20211;-96
2022/06/25 13:36:47;;;;;;;1.80;1.50;;;13.60;99.90;;;;;;4962545;28;20215;-96
2022/06/25 13:39:19;;;;;;;3.03;2.17;;;13.60;99.90;;;;;;4961077;28;20235;-96
2022/06/25 13:41:52;;;;;;;3.60;1.70;;;13.60;99.90;;;;;;4958855;28;20216;-96
2022/06/25 13:44:25;;;;;;;2.37;1.50;;;13.60;99.90;;;;;;4961249;28;20207;-96
2022/06/25 13:47:01;;;;;;;3.37;1.63;;;13.70;99.90;;;;;;4960594;28;20210;-96
2022/06/25 13:52:19;;;;;;;2.50;1.20;;;13.80;99.90;;;;;;4963227;28;20239;-96
2022/06/25 13:54:51;;;;;;;4.67;1.70;;;13.90;99.90;;;;;;4960079;28;20665;-96
2022/06/25 13:57:25;;;;;;;2.30;1.40;;;14.00;99.90;;;;;;4962932;28;20716;-96
2022/06/25 14:00:04;;;;;;;1.90;1.30;;;14.10;99.90;;;;;;4961272;28;20234;-96
2022/06/25 14:02:42;;;;;;;1.50;1.37;;;14.10;99.90;;;;;;4962288;28;20219;-95
2022/06/25 14:05:15;;;;;;;1.93;1.67;;;14.20;99.90;;;;;;4962901;28;20214;-96
2022/06/25 14:07:47;;;;;;;2.33;1.27;;;14.20;99.90;;;;;;4949221;28;20212;-96
2022/06/25 14:10:19;;;;;;;1.67;1.20;;;14.30;99.90;;;;;;4942454;29;20216;-96
2022/06/25 14:12:51;;;;;;;3.07;1.50;;;14.40;99.90;;;;;;4944936;29;20663;-96
2022/06/25 14:15:33;;;;;;;3.70;1.40;;;14.50;99.90;;;;;;4949008;29;20349;-96
2022/06/25 14:18:12;;;;;;;1.77;1.20;;;14.60;99.90;;;;;;4943781;29;20282;-96
2022/06/25 14:20:44;;;;;;;1.70;1.30;;;14.60;99.90;;;;;;4943036;29;20208;-96
2022/06/25 14:23:17;;;;;;;2.93;1.40;;;14.70;99.90;;;;;;4948377;28;20228;-96
2022/06/25 14:25:58;;;;;;;1.83;1.40;;;14.70;99.90;;;;;;4944124;29;20217;-96
2022/06/25 14:28:32;;;;;;;4.53;1.60;;;14.70;99.90;;;;;;4946657;29;20248;-96
2022/06/25 14:31:03;;;;;;;1.90;1.33;;;14.80;99.90;;;;;;4946313;29;20222;-96
2022/06/25 14:33:38;;;;;;;2.70;1.30;;;14.90;99.90;;;;;;4945851;29;20235;-96
2022/06/25 14:44:40;;;;;;;1.53;1.10;;;15.50;99.90;;;;;;4943041;29;20204;-96
2022/06/25 14:47:14;;;;;;;2.33;1.13;;;15.90;99.90;;;;;;4944016;29;20251;-96
2022/06/25 14:49:56;;;;;;;3.47;1.10;;;16.90;99.90;;;;;;4942522;29;20211;-96
2022/06/25 14:52:28;;;;;;;2.57;0.90;;;17.90;99.90;;;;;;4946917;28;20239;-96
2022/06/25 14:55:04;;;;;;;1.40;0.93;;;18.70;99.90;;;;;;4949665;29;20252;-96
2022/06/25 14:57:39;;;;;;;3.07;1.10;;;19.50;99.90;;;;;;4949895;29;20288;-96
2022/06/25 15:00:13;;;;;;;1.83;1.00;;;20.00;99.90;;;;;;4948478;29;20208;-96
2022/06/25 15:41:29;;;;;;;2.37;1.17;;;20.60;99.90;;;;;;5022666;23;20284;-96
2022/06/25 17:38:42;;;;;;;2.53;0.60;;;23.50;99.90;;;;;;5270412;23;20247;-97
2022/06/25 17:50:52;;;;;;;3.73;0.60;;;23.90;99.90;;;;;;4936555;29;20208;-96
2022/06/25 18:07:32;;;;;;;1.93;0.70;;;24.70;99.90;;;;;;5096479;23;20266;-96
2022/06/25 20:08:22;;;;;;;2.35;0.75;;;29.00;98.00;;;;;;4957104;28;20192;-96
2022/06/25 20:10:56;;;;;;;0.93;0.50;;;29.10;96.90;;;;;;4959892;28;20199;-96
2022/06/25 20:13:30;;;;;;;2.80;0.65;;;29.20;98.30;;;;;;4961017;28;20228;-96
2022/06/25 21:02:12;;;;;;;0.52;0.50;;;30.60;93.20;;;;;;4938844;29;20208;-96
2022/06/25 21:10:11;;;;;;;1.30;0.60;;;30.60;92.70;;;;;;5772622;23;20231;-96
2022/06/25 21:12:44;;;;;;;2.78;0.50;;;30.80;92.10;;;;;;4973337;28;20211;-96
2022/06/25 21:57:36;;;;;;;1.38;0.65;;;32.00;90.30;;;;;;6031746;23;20232;-96
2022/06/25 22:00:19;;;;;;;3.55;0.70;;;32.00;90.50;;;;;;4955875;28;20327;-96
2022/06/25 22:02:52;;;;;;;5.55;0.70;;;32.10;90.50;;;;;;4957037;28;20200;-96
2022/06/25 22:10:51;;;;;;;0.90;0.40;;;32.50;89.70;;;;;;4958300;28;20203;-96
2022/06/25 22:20:07;;;;;;;1.65;0.65;;;32.50;89.40;;;;;;4939176;29;20280;-96
2022/06/25 22:22:43;;;;;;;1.27;0.55;;;32.60;89.90;;;;;;4934398;29;20201;-96
2022/06/25 22:25:19;;;;;;;0.63;0.50;;;32.50;89.70;;;;;;4930715;29;20272;-96
2022/06/25 22:27:52;;;;;;;1.33;0.50;;;32.50;86.70;;;;;;4929723;29;20213;-96
2022/06/25 23:02:40;;;;;;;0.80;0.60;;;33.30;82.30;;;;;;4948890;29;20216;-96
2022/06/25 23:08:09;;;;;;;4.68;0.50;;;33.60;83.50;;;;;;4949002;29;20242;-96
2022/06/25 23:10:55;;;;;;;0.50;0.40;;;33.40;80.40;;;;;;4947031;29;20227;-96
2022/06/25 23:13:28;;;;;;;5.93;0.47;;;33.40;81.60;;;;;;4947256;29;20299;-96
2022/06/25 23:16:16;;;;;;;1.25;0.40;;;33.40;78.30;;;;;;4945578;29;20208;-96
2022/06/25 23:18:49;;;;;;;2.05;0.50;;;33.60;79.80;;;;;;4946360;29;20239;-96
2022/06/25 23:21:27;;;;;;;1.38;0.65;;;33.60;79.20;;;;;;4945296;29;20240;-96
2022/06/25 23:24:13;;;;;;;0.40;0.40;;;33.60;78.50;;;;;;4947044;29;20215;-96
2022/06/25 23:26:48;;;;;;;1.23;0.43;;;33.50;77.20;;;;;;4946491;29;20208;-96
2022/06/25 23:29:31;;;;;;;2.88;0.70;;;33.40;76.70;;;;;;4950938;29;20211;-96
2022/06/25 23:32:29;;;;;;;1.48;0.50;;;33.20;78.70;;;;;;4959575;28;20197;-96
2022/06/25 23:44:12;;;;;;;2.40;0.47;;;33.00;79.30;;;;;;4941844;29;20193;-96
2022/06/25 23:55:30;;;;;;;0.60;0.50;;;33.20;78.60;;;;;;4972332;28;20239;-96
